Time;durP1;ratioP1;P1;durP2;ratioP2;P2;SDS_P1;SDS_P2;PMS_P1;PMS_P2;Temp;Humidity;BMP_temperature;BMP_pressure;BME280_temperature;BME280_humidity;BME280_pressure;Samples;Min_cycle;Max_cycle;Signal;HPM_P1;HPM_P2
2022/02/10 00:15:49;;;;;;;15.32;7.85;;;11.00;99.90;;;;;;2116996;27;20039;-70
2022/02/10 00:19:33;;;;;;;13.35;6.82;;;11.00;99.90;;;;;;2113852;28;20027;-70
2022/02/10 00:20:43;;;;;;;9.35;6.88;;;10.90;99.90;;;;;;2124333;27;20046;-70
2022/02/10 00:34:09;;;;;;;13.50;7.20;;;11.00;99.90;;;;;;2118693;27;20035;-70
2022/02/10 00:35:07;;;;;;;18.25;7.45;;;10.90;99.90;;;;;;2117389;28;20031;-70
2022/02/10 00:36:11;;;;;;;13.40;7.60;;;10.90;99.90;;;;;;2119892;27;20035;-70
2022/02/10 00:37:17;;;;;;;15.50;7.55;;;10.90;99.90;;;;;;2120724;27;20019;-70
2022/02/10 00:38:20;;;;;;;13.88;6.90;;;10.90;99.90;;;;;;2123539;27;20046;-70
2022/02/10 00:40:21;;;;;;;19.23;7.60;;;10.90;99.90;;;;;;2119974;27;20027;-70
2022/02/10 00:41:22;;;;;;;17.15;7.63;;;10.90;99.90;;;;;;2119893;27;20015;-70
2022/02/10 00:42:22;;;;;;;15.70;7.38;;;10.90;99.90;;;;;;2123614;27;20027;-70
2022/02/10 00:43:23;;;;;;;14.02;7.57;;;10.90;99.90;;;;;;2126629;27;20026;-70
2022/02/10 00:44:24;;;;;;;14.43;8.52;;;10.90;99.90;;;;;;2123112;27;20344;-70
2022/02/10 00:45:28;;;;;;;12.95;7.32;;;10.90;99.90;;;;;;2119266;27;20019;-70
2022/02/10 00:46:29;;;;;;;15.40;7.10;;;10.90;99.90;;;;;;2121183;27;20387;-70
2022/02/10 00:47:35;;;;;;;15.70;7.63;;;10.90;99.90;;;;;;2123468;27;20033;-70
2022/02/10 00:48:36;;;;;;;14.23;7.93;;;10.90;99.90;;;;;;2120016;27;20016;-70
2022/02/10 00:49:37;;;;;;;15.63;8.15;;;10.90;99.90;;;;;;2119986;27;20459;-70
2022/02/10 00:50:39;;;;;;;15.57;7.47;;;10.90;99.90;;;;;;2120142;27;20020;-70
2022/02/10 00:51:41;;;;;;;13.30;7.82;;;10.90;99.90;;;;;;2124451;27;20428;-70
2022/02/10 00:52:43;;;;;;;13.00;7.90;;;10.90;99.90;;;;;;2124933;27;20379;-70
2022/02/10 00:53:45;;;;;;;14.13;7.88;;;10.90;99.90;;;;;;2120439;27;20336;-70
2022/02/10 00:54:46;;;;;;;10.77;6.35;;;10.90;99.90;;;;;;2122753;27;20107;-70
2022/02/10 00:55:47;;;;;;;9.43;6.13;;;10.90;99.90;;;;;;2121062;27;20110;-70
2022/02/10 00:56:48;;;;;;;12.43;7.00;;;10.90;99.90;;;;;;2123552;27;20021;-70
2022/02/10 00:57:48;;;;;;;14.13;8.13;;;10.90;99.90;;;;;;2120268;27;20030;-70
2022/02/10 00:58:58;;;;;;;13.18;7.70;;;10.90;99.90;;;;;;2119806;27;20050;-70
2022/02/10 01:11:57;;;;;;;15.43;7.75;;;10.80;99.90;;;;;;2121777;27;20022;-70
2022/02/10 01:12:53;;;;;;;;;;;10.80;99.90;;;;;;2122315;27;20481;-70
2022/02/10 01:14:31;;;;;;;14.07;7.55;;;10.70;99.90;;;;;;2119714;27;19904;-70
2022/02/10 01:29:57;;;;;;;12.68;7.85;;;10.50;99.90;;;;;;2117496;27;20027;-70
2022/02/10 01:30:58;;;;;;;14.48;8.50;;;10.40;99.90;;;;;;2123625;27;20029;-70
2022/02/10 01:31:58;;;;;;;15.80;9.15;;;10.40;99.90;;;;;;2124093;27;20102;-70
2022/02/10 01:33:03;;;;;;;17.50;9.20;;;10.40;99.90;;;;;;2118663;27;20035;-70
2022/02/10 01:34:03;;;;;;;16.08;8.77;;;10.40;99.90;;;;;;2119872;27;20024;-70
2022/02/10 01:35:08;;;;;;;14.82;9.20;;;10.40;99.90;;;;;;2121530;27;20030;-70
2022/02/10 01:36:08;;;;;;;14.43;8.95;;;10.40;99.90;;;;;;2121722;27;20023;-70
2022/02/10 01:37:09;;;;;;;17.17;9.23;;;10.40;99.90;;;;;;2120110;27;20020;-70
2022/02/10 01:38:10;;;;;;;23.23;9.68;;;10.40;99.90;;;;;;2126128;27;20020;-70
2022/02/10 01:39:11;;;;;;;13.25;8.57;;;10.30;99.90;;;;;;2124603;27;20502;-70
2022/02/10 01:40:23;;;;;;;10.50;7.70;;;10.40;99.90;;;;;;2124409;27;20347;-70
2022/02/10 02:03:48;;;;;;;18.55;9.48;;;9.90;99.90;;;;;;2116083;27;20023;-70
2022/02/10 02:04:49;;;;;;;16.65;9.40;;;9.80;99.90;;;;;;2121254;27;20031;-70
2022/02/10 02:06:04;;;;;;;14.07;8.20;;;9.80;99.90;;;;;;2120275;27;20114;-70
2022/02/10 02:07:05;;;;;;;16.05;8.27;;;9.80;99.90;;;;;;2119260;27;20016;-70
2022/02/10 02:08:09;;;;;;;19.05;10.65;;;9.80;99.90;;;;;;2118754;27;20066;-70
2022/02/10 02:09:13;;;;;;;17.58;10.65;;;9.80;99.90;;;;;;2120672;27;20020;-70
2022/02/10 02:10:13;;;;;;;17.83;9.70;;;9.80;99.90;;;;;;2121344;27;20019;-70
2022/02/10 02:11:14;;;;;;;15.32;9.95;;;9.70;99.90;;;;;;2121452;27;20462;-70
2022/02/10 02:12:14;;;;;;;19.65;10.60;;;9.70;99.90;;;;;;2118942;27;20018;-70
2022/02/10 02:13:15;;;;;;;18.75;10.55;;;9.70;99.90;;;;;;2123081;27;20634;-70
2022/02/10 02:14:20;;;;;;;12.88;8.57;;;9.70;99.90;;;;;;2118766;27;20022;-70
2022/02/10 02:15:21;;;;;;;16.25;9.90;;;9.70;99.90;;;;;;2118755;27;20336;-70
2022/02/10 02:16:26;;;;;;;19.23;10.13;;;9.70;99.90;;;;;;2113595;28;20031;-70
2022/02/10 02:17:26;;;;;;;17.15;10.27;;;9.60;99.90;;;;;;2122849;27;20058;-70
2022/02/10 02:18:27;;;;;;;14.00;8.65;;;9.60;99.90;;;;;;2121795;27;20014;-70
2022/02/10 02:19:27;;;;;;;15.68;9.98;;;9.60;99.90;;;;;;2120014;27;20376;-70
2022/02/10 02:20:28;;;;;;;15.02;8.95;;;9.60;99.90;;;;;;2118627;27;20027;-70
2022/02/10 02:21:30;;;;;;;16.48;10.65;;;9.60;99.90;;;;;;2121110;27;20031;-70
2022/02/10 02:22:31;;;;;;;14.48;8.85;;;9.60;99.90;;;;;;2118936;27;20786;-70
2022/02/10 02:23:34;;;;;;;17.75;10.95;;;9.60;99.90;;;;;;2117374;27;20031;-70
2022/02/10 02:24:36;;;;;;;20.05;10.70;;;9.60;99.90;;;;;;2114607;27;20060;-70
2022/02/10 02:25:36;;;;;;;14.30;9.40;;;9.60;99.90;;;;;;2116447;27;20016;-70
2022/02/10 02:26:37;;;;;;;15.55;10.75;;;9.50;99.90;;;;;;2116565;27;20023;-70
2022/02/10 02:27:50;;;;;;;18.60;10.48;;;9.50;99.90;;;;;;2118656;27;20062;-70
2022/02/10 02:28:56;;;;;;;18.40;10.05;;;9.50;99.90;;;;;;2114919;27;20021;-70
2022/02/10 02:30:10;;;;;;;17.42;11.05;;;9.40;99.90;;;;;;2120540;27;20031;-70
2022/02/10 02:31:16;;;;;;;17.10;9.75;;;9.40;99.90;;;;;;2114031;28;21007;-70
2022/02/10 02:32:27;;;;;;;15.52;10.75;;;9.40;99.90;;;;;;2118832;27;20040;-70
2022/02/10 03:04:54;;;;;;;18.92;12.85;;;8.60;99.90;;;;;;2119370;27;20047;-70
2022/02/10 03:06:03;;;;;;;16.85;12.75;;;8.60;99.90;;;;;;2118475;27;20039;-70
2022/02/10 03:07:13;;;;;;;17.55;12.55;;;8.60;99.90;;;;;;2120389;27;20051;-70
2022/02/10 03:08:17;;;;;;;21.08;13.32;;;8.60;99.90;;;;;;2120846;27;20362;-70
2022/02/10 03:09:24;;;;;;;23.65;14.43;;;8.60;99.90;;;;;;2121784;27;20030;-70
2022/02/10 03:10:41;;;;;;;22.52;14.30;;;8.60;99.90;;;;;;2123379;27;20455;-70
2022/02/10 03:11:43;;;;;;;22.42;14.98;;;8.60;99.90;;;;;;2119658;27;20011;-70
2022/02/10 03:12:44;;;;;;;20.17;14.40;;;8.60;99.90;;;;;;2121066;27;20027;-70
2022/02/10 03:13:59;;;;;;;21.40;14.23;;;8.60;99.90;;;;;;2124939;27;20046;-70
2022/02/10 03:15:02;;;;;;;25.40;14.65;;;8.60;99.90;;;;;;2121000;27;20036;-70
2022/02/10 03:18:49;;;;;;;18.50;13.98;;;8.70;99.90;;;;;;2122619;27;20047;-70
2022/02/10 03:20:09;;;;;;;25.52;13.93;;;8.60;99.90;;;;;;2116850;27;20020;-70
2022/02/10 04:00:09;;;;;;;16.20;9.82;;;8.80;99.90;;;;;;2126808;27;20027;-70
2022/02/10 04:01:39;;;;;;;15.23;9.05;;;8.80;99.90;;;;;;2120782;27;20039;-70
2022/02/10 04:04:12;;;;;;;16.13;9.88;;;8.70;99.90;;;;;;2118864;27;20080;-70
2022/02/10 04:07:34;;;;;;;14.30;9.40;;;8.70;99.90;;;;;;2117381;27;20031;-70
2022/02/10 04:14:13;;;;;;;13.80;8.57;;;8.80;99.90;;;;;;2121854;27;20513;-70
2022/02/10 04:16:31;;;;;;;14.75;8.93;;;8.80;99.90;;;;;;2119961;27;20580;-70
2022/02/10 04:22:27;;;;;;;10.35;7.93;;;8.70;99.90;;;;;;2114197;27;20505;-69
2022/02/10 04:23:29;;;;;;;15.40;8.40;;;8.70;99.90;;;;;;2112210;27;20052;-70
2022/02/10 04:27:04;;;;;;;13.63;7.82;;;8.70;99.90;;;;;;2116532;27;20123;-70
2022/02/10 04:28:35;;;;;;;14.43;9.35;;;8.70;99.90;;;;;;2121757;27;20484;-70
2022/02/10 04:30:11;;;;;;;;;;;8.70;99.90;;;;;;2121897;27;20459;-70
2022/02/10 04:38:22;;;;;;;12.52;8.05;;;8.50;99.90;;;;;;2123535;27;20027;-70
2022/02/10 04:42:49;;;;;;;14.43;8.70;;;8.50;99.90;;;;;;2122954;27;20927;-70
2022/02/10 04:44:41;;;;;;;14.57;8.63;;;8.50;99.90;;;;;;2121818;27;20081;-70
2022/02/10 04:55:19;;;;;;;16.10;10.45;;;8.20;99.90;;;;;;2120890;27;20020;-70
2022/02/10 04:56:49;;;;;;;17.75;10.57;;;8.20;99.90;;;;;;2124767;27;20035;-70
2022/02/10 04:57:43;;;;;;;18.85;10.50;;;8.20;99.90;;;;;;2124840;27;20050;-70
2022/02/10 04:58:56;;;;;;;19.83;11.68;;;8.20;99.90;;;;;;2119393;27;20026;-70
2022/02/10 05:04:08;;;;;;;19.20;11.82;;;8.20;99.90;;;;;;2117672;27;20070;-70
2022/02/10 05:12:19;;;;;;;20.08;11.82;;;8.20;99.90;;;;;;2121476;27;20023;-70
2022/02/10 05:17:41;;;;;;;18.83;12.82;;;8.10;99.90;;;;;;2118951;27;20350;-70
2022/02/10 05:19:07;;;;;;;21.95;12.75;;;8.10;99.90;;;;;;2125576;27;20030;-70
2022/02/10 05:33:57;;;;;;;21.02;12.70;;;8.10;99.90;;;;;;2112843;27;20034;-70
2022/02/10 05:35:12;;;;;;;18.98;12.93;;;8.10;99.90;;;;;;2114891;27;20045;-70
2022/02/10 05:36:16;;;;;;;18.80;13.40;;;8.10;99.90;;;;;;2116251;27;20059;-70
2022/02/10 05:37:19;;;;;;;25.27;14.27;;;8.10;99.90;;;;;;2118935;27;20022;-70
2022/02/10 05:38:27;;;;;;;20.15;12.85;;;8.20;99.90;;;;;;2120539;27;20519;-70
2022/02/10 05:39:30;;;;;;;20.75;13.32;;;8.20;99.90;;;;;;2118612;27;20141;-70
2022/02/10 05:44:33;;;;;;;18.77;13.52;;;8.20;99.90;;;;;;2117429;27;20031;-70
2022/02/10 05:45:47;;;;;;;19.40;12.50;;;8.20;99.90;;;;;;2117628;27;20494;-70
2022/02/10 05:47:14;;;;;;;18.88;12.27;;;8.20;99.90;;;;;;2117147;27;20114;-70
2022/02/10 05:48:37;;;;;;;18.20;12.45;;;8.20;99.90;;;;;;2116774;27;20031;-70
2022/02/10 05:52:44;;;;;;;22.05;12.60;;;8.20;99.90;;;;;;2117470;27;20108;-70
2022/02/10 05:56:16;;;;;;;18.35;11.18;;;8.20;99.90;;;;;;2117805;27;20024;-70
2022/02/10 05:57:42;;;;;;;19.20;11.48;;;8.30;99.90;;;;;;2114461;27;20080;-70
2022/02/10 06:03:14;;;;;;;19.60;11.65;;;8.30;99.90;;;;;;2118796;27;20063;-70
2022/02/10 06:41:50;;;;;;;13.98;9.52;;;8.50;99.90;;;;;;2122859;27;20047;-70
2022/02/10 06:52:27;;;;;;;12.90;8.38;;;8.60;99.90;;;;;;2115096;27;20023;-70
2022/02/10 06:53:47;;;;;;;12.70;8.60;;;8.60;99.90;;;;;;2115281;27;20023;-70
2022/02/10 06:55:21;;;;;;;13.00;9.05;;;8.60;99.90;;;;;;2120412;27;20116;-70
2022/02/10 06:56:42;;;;;;;14.40;9.20;;;8.60;99.90;;;;;;2118101;27;20023;-70
2022/02/10 07:05:44;;;;;;;14.55;8.65;;;8.60;99.90;;;;;;2119763;27;20130;-70
2022/02/10 07:09:37;;;;;;;13.93;8.70;;;8.70;99.90;;;;;;2121245;27;20019;-70
2022/02/10 07:10:55;;;;;;;;;;;8.70;99.90;;;;;;2124462;27;20023;-70
2022/02/10 07:12:33;;;;;;;15.52;9.45;;;8.60;99.90;;;;;;2115236;27;19915;-70
2022/02/10 07:16:35;;;;;;;15.23;9.10;;;8.60;99.90;;;;;;2116677;27;20502;-70
2022/02/10 07:46:06;;;;;;;17.85;9.18;;;8.70;99.90;;;;;;2101019;28;20111;-70
2022/02/10 07:50:20;;;;;;;18.27;10.05;;;8.80;99.90;;;;;;2077793;28;20575;-70
2022/02/10 07:52:37;;;;;;;16.83;10.18;;;8.80;99.90;;;;;;2120607;27;20095;-70
2022/02/10 07:55:38;;;;;;;16.48;10.10;;;8.80;99.90;;;;;;2111174;28;20035;-70
2022/02/10 07:58:05;;;;;;;20.00;10.43;;;8.80;99.90;;;;;;2124015;27;20026;-70
2022/02/10 07:59:34;;;;;;;17.75;11.27;;;8.80;99.90;;;;;;2121428;27;20031;-70
2022/02/10 08:49:44;;;;;;;20.30;11.18;;;9.00;99.90;;;;;;2125219;27;20012;-70
2022/02/10 08:53:13;;;;;;;16.00;10.57;;;9.00;99.90;;;;;;2117470;27;20027;-70
2022/02/10 08:54:21;;;;;;;20.17;10.57;;;9.00;99.90;;;;;;2119076;27;20455;-70
2022/02/10 08:56:01;;;;;;;15.65;9.27;;;9.00;99.90;;;;;;2122140;27;19914;-70
2022/02/10 08:59:56;;;;;;;18.02;10.27;;;9.00;99.90;;;;;;2120048;27;20136;-70
2022/02/10 09:04:36;;;;;;;20.73;12.80;;;9.10;99.90;;;;;;2121442;27;20044;-70
2022/02/10 09:05:48;;;;;;;21.27;12.00;;;9.10;99.90;;;;;;2121549;27;20023;-70
2022/02/10 09:07:32;;;;;;;20.35;12.63;;;9.10;99.90;;;;;;2118165;27;20107;-70
2022/02/10 09:18:13;;;;;;;21.08;10.80;;;9.20;99.90;;;;;;2126602;27;20027;-70
2022/02/10 09:21:46;;;;;;;22.65;12.43;;;9.20;99.90;;;;;;2119941;27;20096;-70
2022/02/10 09:48:17;;;;;;;23.95;12.35;;;9.40;99.90;;;;;;2126075;27;20023;-70
2022/02/10 09:51:00;;;;;;;17.08;11.48;;;9.40;99.90;;;;;;2119289;27;20036;-70
2022/02/10 09:57:40;;;;;;;16.80;12.13;;;9.50;99.90;;;;;;2123247;27;20522;-70
2022/02/10 10:02:39;;;;;;;18.02;13.18;;;9.50;99.90;;;;;;2119540;27;20519;-70
2022/02/10 10:03:44;;;;;;;18.08;12.50;;;9.50;99.90;;;;;;2117242;27;20023;-70
2022/02/10 10:05:10;;;;;;;20.35;12.95;;;9.60;99.90;;;;;;2122957;27;20011;-70
2022/02/10 10:15:06;;;;;;;20.63;12.38;;;9.70;99.90;;;;;;2121239;27;20077;-70
2022/02/10 10:16:56;;;;;;;16.25;13.23;;;9.70;99.90;;;;;;2121611;27;20038;-70
2022/02/10 10:20:42;;;;;;;20.13;12.68;;;9.70;99.90;;;;;;2120949;27;20109;-70
2022/02/10 10:21:22;;;;;;;18.27;12.63;;;9.70;99.90;;;;;;2107473;27;20403;-70
2022/02/10 10:44:15;;;;;;;;;;;9.70;99.90;;;;;;2118125;27;20454;-70
2022/02/10 10:50:26;;;;;;;20.08;16.05;;;9.70;99.90;;;;;;2114514;27;20850;-71
2022/02/10 10:54:58;;;;;;;21.10;15.75;;;9.70;99.90;;;;;;2084669;28;20053;-71
2022/02/10 10:55:42;;;;;;;20.58;16.63;;;9.70;99.90;;;;;;2106726;27;20031;-71
2022/02/10 10:56:46;;;;;;;21.25;16.13;;;9.70;99.90;;;;;;2114811;27;20027;-71
2022/02/10 10:57:52;;;;;;;20.35;16.95;;;9.60;99.90;;;;;;2119146;27;20028;-71
2022/02/10 11:00:23;;;;;;;20.90;16.05;;;9.70;99.90;;;;;;2116287;27;20030;-72
2022/02/10 11:38:08;;;;;;;17.10;14.55;;;9.50;99.90;;;;;;2118311;27;20042;-72
2022/02/10 11:39:22;;;;;;;16.55;14.18;;;9.50;99.90;;;;;;2115436;27;20774;-72
2022/02/10 11:40:22;;;;;;;16.27;14.50;;;9.50;99.90;;;;;;2117305;27;20026;-72
2022/02/10 11:41:33;;;;;;;19.08;15.50;;;9.60;99.90;;;;;;2115395;27;20019;-72
2022/02/10 12:32:28;;;;;;;10.30;9.30;;;9.90;99.90;;;;;;2118533;27;20031;-73
2022/02/10 12:33:54;;;;;;;12.32;9.15;;;9.90;99.90;;;;;;2117547;27;20036;-73
2022/02/10 13:33:36;;;;;;;12.48;8.05;;;10.50;99.90;;;;;;2118998;27;20035;-73
2022/02/10 14:09:08;;;;;;;11.50;10.15;;;10.70;99.90;;;;;;2123411;27;20106;-73
2022/02/10 14:14:44;;;;;;;12.27;8.13;;;10.70;99.90;;;;;;2117052;27;20027;-72
2022/02/10 14:17:02;;;;;;;9.60;7.85;;;10.70;99.90;;;;;;2118623;27;20049;-72
2022/02/10 14:19:29;;;;;;;11.57;8.18;;;10.70;99.90;;;;;;2121938;27;20366;-72
2022/02/10 14:21:59;;;;;;;11.05;7.68;;;10.70;99.90;;;;;;2114565;27;20038;-72
2022/02/10 14:26:17;;;;;;;7.72;6.72;;;10.60;99.90;;;;;;2118798;27;20024;-72
2022/02/10 14:27:19;;;;;;;8.13;7.25;;;10.60;99.90;;;;;;2116661;27;20015;-72
2022/02/10 14:28:23;;;;;;;10.10;6.97;;;10.60;99.90;;;;;;2115753;27;20031;-72
2022/02/10 14:29:23;;;;;;;10.88;7.18;;;10.70;99.90;;;;;;2117770;27;20026;-72
2022/02/10 14:30:24;;;;;;;8.65;6.80;;;10.70;99.90;;;;;;2114411;27;20028;-72
2022/02/10 14:31:25;;;;;;;10.13;9.13;;;10.70;99.90;;;;;;2116822;27;20042;-72
2022/02/10 14:32:31;;;;;;;10.63;9.27;;;10.70;99.90;;;;;;2117389;27;20549;-72
2022/02/10 14:33:35;;;;;;;9.85;8.82;;;10.70;99.90;;;;;;2116449;27;20894;-72
2022/02/10 14:34:36;;;;;;;12.02;10.40;;;10.70;99.90;;;;;;2121383;27;20012;-72
2022/02/10 14:35:52;;;;;;;11.57;9.52;;;10.70;99.90;;;;;;2117579;27;20034;-72
2022/02/10 14:37:12;;;;;;;13.07;7.93;;;10.70;99.90;;;;;;2116188;27;20184;-72
2022/02/10 14:42:39;;;;;;;8.43;5.95;;;10.70;99.90;;;;;;2121179;27;20022;-72
2022/02/10 15:17:19;;;;;;;10.20;7.30;;;10.70;99.90;;;;;;2117484;27;20502;-72
2022/02/10 15:49:59;;;;;;;7.75;3.90;;;10.20;99.90;;;;;;2118556;27;20062;-73
2022/02/10 15:52:14;;;;;;;8.52;4.20;;;10.10;99.90;;;;;;2120731;27;19930;-73
2022/02/10 15:54:51;;;;;;;7.60;4.32;;;10.10;99.90;;;;;;2119053;27;20019;-73
2022/02/10 16:11:04;;;;;;;6.18;3.30;;;10.10;99.90;;;;;;2123353;27;20058;-73
2022/02/10 16:12:55;;;;;;;7.20;3.65;;;10.00;99.90;;;;;;2122108;27;20522;-73
2022/02/10 16:14:35;;;;;;;6.32;3.20;;;10.10;99.90;;;;;;2120656;27;20030;-73
2022/02/10 16:17:25;;;;;;;7.68;3.60;;;10.00;99.90;;;;;;2119820;27;20033;-73
2022/02/10 16:18:32;;;;;;;4.65;3.60;;;10.00;99.90;;;;;;2119203;27;20200;-73
2022/02/10 16:19:34;;;;;;;6.93;3.60;;;10.00;99.90;;;;;;2116876;27;20027;-73
2022/02/10 16:20:35;;;;;;;8.18;3.83;;;10.10;99.90;;;;;;2121637;27;20362;-73
2022/02/10 16:21:41;;;;;;;8.20;4.25;;;10.10;99.90;;;;;;2118466;27;20038;-73
2022/02/10 16:22:57;;;;;;;6.88;4.10;;;10.10;99.90;;;;;;2120092;27;20019;-73
2022/02/10 16:24:05;;;;;;;7.00;3.80;;;10.10;99.90;;;;;;2115151;27;20043;-73
2022/02/10 16:25:09;;;;;;;10.23;4.65;;;10.10;99.90;;;;;;2113456;27;20160;-73
2022/02/10 16:26:17;;;;;;;9.32;5.57;;;10.10;99.90;;;;;;2120505;27;20051;-73
2022/02/10 16:27:25;;;;;;;7.28;4.63;;;10.10;99.90;;;;;;2120403;27;20015;-73
2022/02/10 16:28:30;;;;;;;8.25;4.30;;;10.10;99.90;;;;;;2115675;27;20062;-73
2022/02/10 16:29:32;;;;;;;12.60;5.43;;;10.10;99.90;;;;;;2119897;27;20454;-73
2022/02/10 16:30:33;;;;;;;10.48;5.75;;;10.00;99.90;;;;;;2123418;27;20030;-73
2022/02/10 16:31:33;;;;;;;11.65;5.03;;;10.00;99.90;;;;;;2118222;27;20038;-73
2022/02/10 16:32:35;;;;;;;19.67;5.03;;;10.00;99.90;;;;;;2116623;27;20032;-73
2022/02/10 16:33:36;;;;;;;10.90;5.95;;;10.00;99.90;;;;;;2123647;27;20485;-73
2022/02/10 16:34:40;;;;;;;8.88;5.82;;;10.00;99.90;;;;;;2118677;27;20038;-73
2022/02/10 16:35:42;;;;;;;12.02;6.70;;;10.00;99.90;;;;;;2117435;27;20035;-74
2022/02/10 16:36:43;;;;;;;12.43;6.65;;;9.90;99.90;;;;;;2118455;27;20390;-73
2022/02/10 16:37:46;;;;;;;9.68;6.25;;;9.90;99.90;;;;;;2120160;27;20074;-73
2022/02/10 16:38:47;;;;;;;9.50;5.88;;;9.90;99.90;;;;;;2122721;27;20058;-73
2022/02/10 16:39:48;;;;;;;11.68;6.13;;;9.90;99.90;;;;;;2117894;27;20024;-73
2022/02/10 16:40:48;;;;;;;8.90;5.82;;;9.90;99.90;;;;;;2121136;27;20051;-73
2022/02/10 16:41:52;;;;;;;10.75;5.88;;;9.90;99.90;;;;;;2118495;27;20028;-73
2022/02/10 16:42:53;;;;;;;8.95;5.68;;;9.90;99.90;;;;;;2119651;27;20654;-73
2022/02/10 16:43:53;;;;;;;10.35;6.72;;;9.90;99.90;;;;;;2120610;27;20671;-73
2022/02/10 16:44:54;;;;;;;17.85;6.75;;;9.90;99.90;;;;;;2118476;27;20027;-73
2022/02/10 16:45:56;;;;;;;11.98;6.70;;;9.90;99.90;;;;;;2121152;27;20031;-73
2022/02/10 16:46:57;;;;;;;10.32;7.15;;;9.90;99.90;;;;;;2123241;27;20027;-73
2022/02/10 16:47:57;;;;;;;9.35;5.97;;;9.90;99.90;;;;;;2124227;27;20027;-73
2022/02/10 16:48:58;;;;;;;10.05;6.25;;;9.90;99.90;;;;;;2120389;27;20032;-73
2022/02/10 16:50:00;;;;;;;11.80;6.78;;;9.90;99.90;;;;;;2118426;27;20062;-73
2022/02/10 16:51:01;;;;;;;12.13;7.07;;;9.90;99.90;;;;;;2124761;27;20034;-73
2022/02/10 16:52:05;;;;;;;13.18;8.75;;;9.90;99.90;;;;;;2117618;27;20034;-73
2022/02/10 16:53:10;;;;;;;12.27;7.63;;;9.90;99.90;;;;;;2118922;27;20028;-73
2022/02/10 16:54:34;;;;;;;14.18;7.93;;;9.90;99.90;;;;;;2122221;27;20023;-73
2022/02/10 16:57:07;;;;;;;13.75;9.52;;;9.80;99.90;;;;;;2119472;27;20064;-73
2022/02/10 16:58:25;;;;;;;16.52;9.70;;;9.80;99.90;;;;;;2120300;27;20023;-73
2022/02/10 16:59:49;;;;;;;14.05;10.15;;;9.80;99.90;;;;;;2117743;27;20024;-73
2022/02/10 17:04:34;;;;;;;11.88;8.25;;;9.70;99.90;;;;;;2117832;27;20035;-73
2022/02/10 17:05:52;;;;;;;;;;;9.70;99.90;;;;;;2118184;27;20023;-73
2022/02/10 17:25:48;;;;;;;12.63;8.68;;;9.60;99.90;;;;;;2122169;27;20499;-73
2022/02/10 17:27:08;;;;;;;13.57;9.43;;;9.60;99.90;;;;;;2124021;27;20038;-73
2022/02/10 17:28:10;;;;;;;16.40;10.52;;;9.60;99.90;;;;;;2120515;27;20446;-73
2022/02/10 17:29:25;;;;;;;12.40;9.48;;;9.50;99.90;;;;;;2121102;27;20037;-73
2022/02/10 17:33:19;;;;;;;13.90;10.20;;;9.50;99.90;;;;;;2120850;27;20050;-73
2022/02/10 17:34:37;;;;;;;15.80;10.02;;;9.60;99.90;;;;;;2117773;27;20510;-73
2022/02/10 17:37:08;;;;;;;18.50;11.02;;;9.50;99.90;;;;;;2121263;27;20394;-73
2022/02/10 17:42:25;;;;;;;20.23;12.23;;;9.50;99.90;;;;;;2122330;27;20057;-73
2022/02/10 17:44:53;;;;;;;16.75;12.05;;;9.40;99.90;;;;;;2118619;27;20039;-73
2022/02/10 17:46:03;;;;;;;16.48;10.68;;;9.40;99.90;;;;;;2115802;27;20023;-73
2022/02/10 17:52:22;;;;;;;15.47;8.93;;;9.30;99.90;;;;;;2123936;27;20057;-73
2022/02/10 17:53:28;;;;;;;13.15;9.23;;;9.20;99.90;;;;;;2123412;27;20252;-73
2022/02/10 17:54:28;;;;;;;15.20;9.10;;;9.20;99.90;;;;;;2122540;27;20015;-73
2022/02/10 17:55:31;;;;;;;16.13;9.57;;;9.20;99.90;;;;;;2122502;27;20046;-73
2022/02/10 17:56:32;;;;;;;14.00;9.25;;;9.20;99.90;;;;;;2117768;27;20026;-73
2022/02/10 17:57:33;;;;;;;12.30;7.35;;;9.20;99.90;;;;;;2123533;27;20038;-73
2022/02/10 17:58:34;;;;;;;12.95;8.45;;;9.20;99.90;;;;;;2125334;27;20029;-73
2022/02/10 17:59:35;;;;;;;8.52;6.75;;;9.20;99.90;;;;;;2122748;27;20199;-73
2022/02/10 18:00:36;;;;;;;11.95;6.70;;;9.20;99.90;;;;;;2122734;27;20019;-73
2022/02/10 18:01:36;;;;;;;10.60;5.90;;;9.20;99.90;;;;;;2116888;27;20020;-73
2022/02/10 18:02:37;;;;;;;14.50;6.03;;;9.20;99.90;;;;;;2116834;27;20015;-73
2022/02/10 18:03:38;;;;;;;10.30;6.03;;;9.10;99.90;;;;;;2109608;28;20052;-73
2022/02/10 18:04:38;;;;;;;9.02;5.63;;;9.10;99.90;;;;;;2122205;27;20027;-73
2022/02/10 18:06:59;;;;;;;7.50;5.10;;;9.10;99.90;;;;;;2118163;27;20628;-73
2022/02/10 18:08:01;;;;;;;6.88;5.30;;;9.10;99.90;;;;;;2119101;27;20415;-73
2022/02/10 18:10:53;;;;;;;6.43;4.93;;;9.00;99.90;;;;;;2122436;27;20022;-73
2022/02/10 18:13:21;;;;;;;6.07;5.07;;;8.80;99.90;;;;;;2119543;27;19911;-73
2022/02/10 18:15:25;;;;;;;6.50;4.95;;;8.80;99.90;;;;;;2118979;27;20031;-73
2022/02/10 18:17:38;;;;;;;7.03;5.63;;;8.80;99.90;;;;;;2118394;27;20025;-73
2022/02/10 18:18:46;;;;;;;6.53;4.97;;;8.80;99.90;;;;;;2120643;27;20027;-73
2022/02/10 18:20:54;;;;;;;7.88;4.13;;;8.80;99.90;;;;;;2122497;27;20011;-73
2022/02/10 18:22:24;;;;;;;4.95;3.92;;;8.80;99.90;;;;;;2119902;27;20126;-73
2022/02/10 18:23:21;;;;;;;8.13;4.38;;;8.80;99.90;;;;;;2121272;27;20031;-73
2022/02/10 18:25:43;;;;;;;5.18;3.92;;;8.70;99.90;;;;;;2117931;27;20027;-73
2022/02/10 18:30:14;;;;;;;5.22;3.22;;;8.70;99.90;;;;;;2115072;27;20023;-73
2022/02/10 19:07:54;;;;;;;8.77;5.38;;;8.70;99.90;;;;;;2121460;27;20548;-73
2022/02/10 19:09:03;;;;;;;8.65;5.15;;;8.70;99.90;;;;;;2118747;27;20399;-73
2022/02/10 19:10:07;;;;;;;7.88;5.10;;;8.70;99.90;;;;;;2122307;27;20035;-73
2022/02/10 19:11:09;;;;;;;9.20;5.70;;;8.70;99.90;;;;;;2124123;27;20028;-73
2022/02/10 19:12:47;;;;;;;9.10;5.10;;;8.60;99.90;;;;;;2122822;27;20011;-73
2022/02/10 19:13:39;;;;;;;6.85;5.07;;;8.60;99.90;;;;;;2119438;27;20119;-73
2022/02/10 19:14:39;;;;;;;6.53;4.80;;;8.60;99.90;;;;;;2115761;27;20030;-73
2022/02/10 19:15:41;;;;;;;7.43;5.90;;;8.60;99.90;;;;;;2120058;27;20019;-73
2022/02/10 19:16:41;;;;;;;8.05;5.38;;;8.60;99.90;;;;;;2126825;27;20030;-73
2022/02/10 19:17:43;;;;;;;7.45;5.63;;;8.60;99.90;;;;;;2120852;27;20031;-73
2022/02/10 19:18:43;;;;;;;9.55;6.10;;;8.60;99.90;;;;;;2124235;27;20023;-73
2022/02/10 19:19:44;;;;;;;10.10;6.18;;;8.50;99.90;;;;;;2124031;27;20470;-73
2022/02/10 19:20:45;;;;;;;8.98;6.22;;;8.50;99.90;;;;;;2120897;27;20027;-73
2022/02/10 19:21:45;;;;;;;8.70;5.95;;;8.50;99.90;;;;;;2121263;27;20106;-73
2022/02/10 19:22:46;;;;;;;8.27;5.95;;;8.50;99.90;;;;;;2116655;27;20849;-73
2022/02/10 19:23:47;;;;;;;7.93;5.57;;;8.50;99.90;;;;;;2121876;27;20028;-74
2022/02/10 19:24:49;;;;;;;8.60;5.57;;;8.40;99.90;;;;;;2120382;27;20055;-73
2022/02/10 19:25:49;;;;;;;5.00;4.28;;;8.40;99.90;;;;;;2118070;27;20042;-73
2022/02/10 19:26:50;;;;;;;6.50;4.50;;;8.40;99.90;;;;;;2124052;27;20034;-73
2022/02/10 19:27:51;;;;;;;5.50;3.97;;;8.30;99.90;;;;;;2116215;27;20016;-73
2022/02/10 19:28:52;;;;;;;6.28;3.03;;;8.30;99.90;;;;;;2124563;27;20019;-73
2022/02/10 19:29:57;;;;;;;4.05;2.60;;;8.20;99.90;;;;;;2123822;27;20055;-73
2022/02/10 19:31:00;;;;;;;4.82;2.50;;;8.20;99.90;;;;;;2115212;27;20018;-73
2022/02/10 19:32:01;;;;;;;3.80;2.47;;;8.20;99.90;;;;;;2120428;27;20128;-73
2022/02/10 19:33:04;;;;;;;2.53;1.70;;;8.20;99.90;;;;;;2121210;27;20042;-73
2022/02/10 19:34:04;;;;;;;4.18;2.35;;;8.20;99.90;;;;;;2117252;27;20022;-73
2022/02/10 19:35:05;;;;;;;3.50;1.70;;;8.10;99.90;;;;;;2121432;27;20494;-73
2022/02/10 19:36:06;;;;;;;2.35;1.50;;;8.10;99.90;;;;;;2118863;27;20629;-73
2022/02/10 19:37:09;;;;;;;3.55;1.60;;;8.10;99.90;;;;;;2120912;27;20408;-73
2022/02/10 19:38:15;;;;;;;3.58;1.70;;;8.10;99.90;;;;;;2119276;27;20012;-73
2022/02/10 19:39:19;;;;;;;6.32;1.80;;;8.10;99.90;;;;;;2119235;27;20015;-73
2022/02/10 19:40:20;;;;;;;5.30;1.85;;;8.00;99.90;;;;;;2114681;28;20410;-73
2022/02/10 19:41:21;;;;;;;4.63;1.90;;;8.00;99.90;;;;;;2121365;27;20045;-73
2022/02/10 19:42:21;;;;;;;2.83;1.85;;;8.00;99.90;;;;;;2122900;27;20065;-73
2022/02/10 19:43:23;;;;;;;6.60;1.98;;;8.00;99.90;;;;;;2121136;27;20022;-73
2022/02/10 19:44:23;;;;;;;3.03;2.08;;;8.00;99.90;;;;;;2120960;27;20110;-72
2022/02/10 19:45:24;;;;;;;2.97;2.30;;;8.00;99.90;;;;;;2120702;27;20015;-73
2022/02/10 19:46:24;;;;;;;6.20;2.30;;;8.00;99.90;;;;;;2119734;27;20026;-73
2022/02/10 19:47:29;;;;;;;5.85;2.30;;;8.00;99.90;;;;;;2121254;27;20015;-73
2022/02/10 19:48:29;;;;;;;2.20;1.90;;;8.00;99.90;;;;;;2119981;27;20033;-73
2022/02/10 19:49:31;;;;;;;2.80;2.00;;;8.00;99.90;;;;;;2123224;27;20048;-73
2022/02/10 19:50:32;;;;;;;3.40;1.80;;;8.00;99.90;;;;;;2121995;27;20038;-73
2022/02/10 19:51:33;;;;;;;3.42;2.28;;;8.00;99.90;;;;;;2121030;27;20019;-73
2022/02/10 19:52:37;;;;;;;8.50;2.22;;;8.00;99.90;;;;;;2120264;27;20086;-73
2022/02/10 19:53:37;;;;;;;3.67;1.98;;;8.00;99.90;;;;;;2116637;27;20018;-73